createdAt,value
2022-10-03T00:01:44.488Z,101431.94
2022-10-03T00:04:37.619Z,101434.72
2022-10-03T00:07:29.686Z,101444.78
2022-10-03T00:10:22.148Z,101444.91
2022-10-03T00:13:08.835Z,101441.72
2022-10-03T00:15:49.999Z,101450.78
2022-10-03T00:18:38.536Z,101461.25
2022-10-03T00:21:29.961Z,101444.53
2022-10-03T00:24:17.472Z,101467.34
2022-10-03T00:26:53.763Z,101450.13
2022-10-03T00:30:02.972Z,101473.19
2022-10-03T00:32:50.864Z,101478.75
2022-10-03T00:35:37.043Z,101476.28
2022-10-03T00:38:42.695Z,101490.00
2022-10-03T00:41:54.019Z,101485.97
2022-10-03T00:45:12.750Z,101484.25
2022-10-03T00:48:16.861Z,101498.78
2022-10-03T00:51:11.078Z,101496.16
2022-10-03T00:54:02.368Z,101494.91
2022-10-03T00:56:55.606Z,101494.66
2022-10-03T00:59:49.613Z,101494.81
2022-10-03T01:02:37.898Z,101496.59
2022-10-03T01:05:22.430Z,101500.81
2022-10-03T01:08:18.176Z,101507.91
2022-10-03T01:10:57.831Z,101500.59
2022-10-03T01:13:43.284Z,101499.16
2022-10-03T01:16:36.441Z,101495.28
2022-10-03T01:19:37.746Z,101505.06
2022-10-03T01:22:48.449Z,101504.53
2022-10-03T01:25:30.234Z,101516.81
2022-10-03T01:28:45.635Z,101515.09
2022-10-03T01:31:24.588Z,101521.34
2022-10-03T01:34:07.006Z,101504.59
2022-10-03T01:36:53.462Z,101515.69
2022-10-03T01:39:33.472Z,101511.19
2022-10-03T01:42:12.071Z,101517.03
2022-10-03T01:45:04.148Z,101519.75
2022-10-03T01:47:51.821Z,101526.28
2022-10-03T01:50:32.607Z,101523.88
2022-10-03T01:53:13.643Z,101517.75
2022-10-03T01:56:00.257Z,101529.84
2022-10-03T01:58:42.958Z,101529.94
2022-10-03T02:01:23.766Z,101523.13
2022-10-03T02:04:04.498Z,101512.97
2022-10-03T02:06:49.300Z,101517.88
2022-10-03T02:09:30.684Z,101526.97
2022-10-03T02:12:09.778Z,101529.66
2022-10-03T02:14:55.915Z,101528.66
2022-10-03T02:17:45.538Z,101515.06
2022-10-03T02:20:29.978Z,101523.72
2022-10-03T02:23:01.151Z,101529.59
2022-10-03T02:25:55.220Z,101518.69
2022-10-03T02:29:11.884Z,101539.81
2022-10-03T02:32:39.301Z,101543.84
2022-10-03T02:36:15.032Z,101545.22
2022-10-03T02:39:24.339Z,101549.19
2022-10-03T02:42:44.485Z,101556.59
2022-10-03T02:46:03.032Z,101568.56
2022-10-03T02:49:06.162Z,101564.13
2022-10-03T02:52:28.316Z,101569.03
2022-10-03T02:55:39.610Z,101558.97
2022-10-03T02:59:05.103Z,101563.13
2022-10-03T03:02:15.476Z,101576.59
2022-10-03T03:05:23.772Z,101576.13
2022-10-03T03:08:41.609Z,101578.75
2022-10-03T03:11:40.150Z,101577.88
2022-10-03T03:15:02.822Z,101580.13
2022-10-03T03:17:41.622Z,101579.91
2022-10-03T03:20:45.022Z,101569.84
2022-10-03T03:23:39.798Z,101578.16
2022-10-03T03:26:38.429Z,101589.78
2022-10-03T03:29:23.314Z,101596.53
2022-10-03T03:32:09.794Z,101600.16
2022-10-03T03:34:55.185Z,101598.94
2022-10-03T03:37:44.907Z,101586.94
2022-10-03T03:40:33.624Z,101606.50
2022-10-03T03:43:37.561Z,101608.22
2022-10-03T03:46:23.740Z,101606.72
2022-10-03T03:49:31.821Z,101606.69
2022-10-03T03:52:24.716Z,101613.03
2022-10-03T03:55:30.787Z,101611.25
2022-10-03T03:58:24.443Z,101625.31
2022-10-03T04:01:38.411Z,101618.25
2022-10-03T04:04:30.468Z,101622.78
2022-10-03T04:07:21.475Z,101614.38
2022-10-03T04:10:18.633Z,101617.47
2022-10-03T04:13:23.946Z,101623.47
2022-10-03T04:16:50.293Z,101626.88
2022-10-03T04:19:29.882Z,101627.53
2022-10-03T04:22:29.331Z,101621.78
2022-10-03T04:25:32.901Z,101627.91
2022-10-03T04:28:52.086Z,101639.78
2022-10-03T04:31:45.079Z,101643.56
2022-10-03T04:34:36.872Z,101639.38
2022-10-03T04:37:24.417Z,101640.84
2022-10-03T04:40:17.429Z,101646.91
2022-10-03T04:43:06.199Z,101632.44
2022-10-03T04:45:59.088Z,101638.44
2022-10-03T04:48:39.202Z,101649.47
2022-10-03T04:51:24.962Z,101650.94
2022-10-03T04:54:03.008Z,101642.66
2022-10-03T04:56:53.714Z,101633.06
2022-10-03T04:59:46.459Z,101648.75
2022-10-03T05:02:37.846Z,101645.81
2022-10-03T05:05:47.976Z,101636.41
2022-10-03T05:08:39.669Z,101659.16
2022-10-03T05:11:26.954Z,101655.38
2022-10-03T05:14:11.040Z,101658.56
2022-10-03T05:16:49.678Z,101662.25
2022-10-03T05:19:52.868Z,101675.13
2022-10-03T05:22:47.027Z,101665.56
2022-10-03T05:25:30.470Z,101668.38
2022-10-03T05:28:19.051Z,101665.31
2022-10-03T05:30:57.697Z,101669.34
2022-10-03T05:33:40.418Z,101681.09
2022-10-03T05:36:28.382Z,101676.66
2022-10-03T05:39:30.149Z,101669.53
2022-10-03T05:42:31.899Z,101681.75
2022-10-03T05:45:08.347Z,101667.28
2022-10-03T05:47:53.035Z,101676.69
2022-10-03T05:51:00.745Z,101683.88
2022-10-03T05:54:10.799Z,101684.56
2022-10-03T05:57:27.774Z,101692.28
2022-10-03T06:00:17.396Z,101692.53
2022-10-03T06:03:15.525Z,101702.50
2022-10-03T06:06:06.485Z,101712.63
2022-10-03T06:09:22.185Z,101711.06
2022-10-03T06:12:14.319Z,101714.38
2022-10-03T06:15:40.897Z,101717.53
2022-10-03T06:18:56.971Z,101728.28
2022-10-03T06:22:24.703Z,101725.38
2022-10-03T06:25:45.485Z,101728.59
2022-10-03T06:29:09.088Z,101730.53
2022-10-03T06:32:07.071Z,101736.91
2022-10-03T06:35:30.163Z,101746.41
2022-10-03T06:39:19.344Z,101741.09
2022-10-03T06:42:40.822Z,101747.09
2022-10-03T06:45:51.323Z,101747.97
2022-10-03T06:48:46.754Z,101755.03
2022-10-03T06:51:57.359Z,101756.22
2022-10-03T06:55:17.716Z,101743.94
2022-10-03T06:58:23.322Z,101750.13
2022-10-03T07:01:16.482Z,101758.53
2022-10-03T07:04:40.716Z,101757.56
2022-10-03T07:07:58.217Z,101756.78
2022-10-03T07:10:46.176Z,101754.31
2022-10-03T07:14:11.126Z,101758.44
2022-10-03T07:17:25.018Z,101758.63
2022-10-03T07:20:56.434Z,101765.72
2022-10-03T07:24:13.821Z,101758.31
2022-10-03T07:27:21.528Z,101764.31
2022-10-03T07:30:08.877Z,101765.38
2022-10-03T07:33:26.369Z,101770.94
2022-10-03T07:36:50.830Z,101776.09
2022-10-03T07:40:09.745Z,101770.97
2022-10-03T07:43:24.193Z,101778.00
2022-10-03T07:46:33.149Z,101751.84
2022-10-03T07:49:33.571Z,101776.81
2022-10-03T07:52:41.257Z,101781.94
2022-10-03T07:55:44.455Z,101781.97
2022-10-03T07:58:53.392Z,101781.44
2022-10-03T08:01:57.796Z,101790.09
2022-10-03T08:05:03.413Z,101789.22
2022-10-03T08:08:12.749Z,101792.28
2022-10-03T08:11:39.712Z,101798.41
2022-10-03T08:14:24.512Z,101798.66
2022-10-03T08:17:33.716Z,101799.66
2022-10-03T08:20:42.073Z,101789.78
2022-10-03T08:23:41.484Z,101805.63
2022-10-03T08:26:24.438Z,101795.91
2022-10-03T08:29:38.965Z,101804.97
2022-10-03T08:33:01.669Z,101805.03
2022-10-03T08:36:21.430Z,101807.59
2022-10-03T08:39:14.354Z,101809.81
2022-10-03T08:42:37.908Z,101794.25
2022-10-03T08:45:48.275Z,101822.00
2022-10-03T08:49:02.086Z,101814.78
2022-10-03T08:52:00.269Z,101809.00
2022-10-03T08:55:11.126Z,101825.44
2022-10-03T08:58:15.025Z,101820.03
2022-10-03T09:01:16.192Z,101822.59
2022-10-03T09:04:40.788Z,101822.47
2022-10-03T09:07:31.326Z,101828.56
2022-10-03T09:11:05.168Z,101819.94
2022-10-03T09:14:27.531Z,101816.19
2022-10-03T09:17:27.399Z,101831.28
2022-10-03T09:20:47.762Z,101825.50
2022-10-03T09:23:47.054Z,101834.97
2022-10-03T09:27:03.742Z,101831.78
2022-10-03T09:30:05.633Z,101823.06
2022-10-03T09:33:42.932Z,101834.63
2022-10-03T09:37:26.633Z,101833.56
2022-10-03T09:40:58.686Z,101833.47
2022-10-03T09:44:20.787Z,101835.22
2022-10-03T09:47:49.009Z,101831.41
2022-10-03T09:51:09.821Z,101822.88
2022-10-03T09:54:30.473Z,101824.53
2022-10-03T09:57:40.456Z,101822.47
2022-10-03T10:00:49.589Z,101830.94
2022-10-03T10:04:12.248Z,101818.09
2022-10-03T10:07:20.813Z,101833.03
2022-10-03T10:10:13.957Z,101830.59
2022-10-03T10:13:18.414Z,101821.53
2022-10-03T10:16:31.055Z,101832.78
2022-10-03T10:19:43.089Z,101822.09
2022-10-03T10:23:14.049Z,101826.88
2022-10-03T10:26:49.400Z,101829.94
2022-10-03T10:29:55.230Z,101824.63
2022-10-03T10:33:15.979Z,101831.25
2022-10-03T10:36:51.151Z,101837.56
2022-10-03T10:40:00.639Z,101839.78
2022-10-03T10:43:15.372Z,101849.81
2022-10-03T10:46:19.082Z,101840.00
2022-10-03T10:49:45.948Z,101833.84
2022-10-03T10:53:07.717Z,101819.63
2022-10-03T10:56:30.159Z,101819.78
2022-10-03T10:59:52.607Z,101822.50
2022-10-03T11:03:32.941Z,101825.50
2022-10-03T11:07:08.552Z,101812.59
2022-10-03T11:10:23.824Z,101816.09
2022-10-03T11:14:02.969Z,101818.25
2022-10-03T11:17:50.257Z,101801.81
2022-10-03T11:21:36.297Z,101813.19
2022-10-03T11:24:57.174Z,101808.47
2022-10-03T11:28:08.589Z,101809.41
2022-10-03T11:31:29.169Z,101811.75
2022-10-03T11:34:54.274Z,101810.16
2022-10-03T11:37:40.857Z,101816.38
2022-10-03T11:40:40.118Z,101820.63
2022-10-03T11:43:50.095Z,101811.41
2022-10-03T11:46:38.727Z,101824.41
2022-10-03T11:49:32.700Z,101826.66
2022-10-03T11:52:20.915Z,101822.22
2022-10-03T11:55:07.206Z,101823.81
2022-10-03T11:57:41.194Z,101834.19
2022-10-03T12:00:20.084Z,101826.09
2022-10-03T12:03:20.832Z,101828.44
2022-10-03T12:06:18.958Z,101832.19
2022-10-03T12:09:19.691Z,101818.38
2022-10-03T12:12:05.217Z,101807.31
2022-10-03T12:14:44.883Z,101815.31
2022-10-03T12:17:17.619Z,101804.78
2022-10-03T12:20:04.509Z,101811.75
2022-10-03T12:22:50.216Z,101801.44
2022-10-03T12:25:25.161Z,101798.97
2022-10-03T12:28:12.844Z,101801.84
2022-10-03T12:30:54.259Z,101798.13
2022-10-03T12:33:48.235Z,101804.69
2022-10-03T12:36:25.825Z,101795.34
2022-10-03T12:39:19.461Z,101814.34
2022-10-03T12:42:16.752Z,101814.13
2022-10-03T12:44:57.652Z,101811.81
2022-10-03T12:47:55.298Z,101814.69
2022-10-03T12:50:43.568Z,101811.97
2022-10-03T12:53:41.932Z,101813.22
2022-10-03T12:56:26.507Z,101805.00
2022-10-03T12:59:20.950Z,101801.44
2022-10-03T13:02:32.909Z,101804.63
2022-10-03T13:05:55.312Z,101810.69
2022-10-03T13:08:54.739Z,101806.59
2022-10-03T13:11:37.749Z,101809.63
2022-10-03T13:14:29.275Z,101817.94
2022-10-03T13:17:14.922Z,101828.38
2022-10-03T13:19:57.586Z,101831.69
2022-10-03T13:22:43.818Z,101827.41
2022-10-03T13:25:26.300Z,101831.53
2022-10-03T13:28:15.674Z,101833.09
2022-10-03T13:30:54.232Z,101827.66
2022-10-03T13:33:28.048Z,101821.53
2022-10-03T13:36:09.949Z,101820.53
2022-10-03T13:38:58.952Z,101816.66
2022-10-03T13:41:44.139Z,101822.53
2022-10-03T13:44:23.932Z,101814.59
2022-10-03T13:47:04.274Z,101811.69
2022-10-03T13:49:40.571Z,101810.34
2022-10-03T13:52:23.701Z,101818.66
2022-10-03T13:55:15.135Z,101814.06
2022-10-03T13:57:54.143Z,101826.97
2022-10-03T14:00:26.641Z,101820.59
2022-10-03T14:03:24.504Z,101831.19
2022-10-03T14:06:12.571Z,101831.09
2022-10-03T14:09:26.227Z,101822.34
2022-10-03T14:12:07.330Z,101800.94
2022-10-03T14:15:08.522Z,101807.66
2022-10-03T14:17:53.276Z,101812.94
2022-10-03T14:20:31.357Z,101819.44
2022-10-03T14:23:19.075Z,101815.69
2022-10-03T14:26:01.434Z,101823.50
2022-10-03T14:28:38.834Z,101821.97
2022-10-03T14:31:21.093Z,101818.56
2022-10-03T14:34:02.536Z,101822.38
2022-10-03T14:36:44.908Z,101819.59
2022-10-03T14:39:37.109Z,101802.47
2022-10-03T14:42:44.842Z,101810.19
2022-10-03T14:45:19.189Z,101817.25
2022-10-03T14:47:54.078Z,101812.06
2022-10-03T14:50:27.592Z,101810.50
2022-10-03T14:53:04.790Z,101812.50
2022-10-03T14:55:40.121Z,101806.63
2022-10-03T14:58:25.340Z,101803.81
2022-10-03T15:01:03.417Z,101797.34
2022-10-03T15:03:38.588Z,101796.00
2022-10-03T15:06:37.417Z,101791.84
2022-10-03T15:09:13.314Z,101801.13
2022-10-03T15:11:51.050Z,101799.16
2022-10-03T15:14:24.616Z,101802.69
2022-10-03T15:16:57.920Z,101796.78
2022-10-03T15:19:44.515Z,101805.03
2022-10-03T15:22:30.569Z,101800.91
2022-10-03T15:25:08.784Z,101797.00
2022-10-03T15:27:42.188Z,101810.50
2022-10-03T15:30:31.732Z,101804.56
2022-10-03T15:33:15.858Z,101809.84
2022-10-03T15:35:51.194Z,101807.78
2022-10-03T15:38:27.600Z,101809.81
2022-10-03T15:41:12.925Z,101810.63
2022-10-03T15:43:52.526Z,101808.06
2022-10-03T15:46:42.813Z,101806.56
2022-10-03T15:49:21.372Z,101803.34
2022-10-03T15:51:52.786Z,101796.38
2022-10-03T15:54:27.742Z,101805.34
2022-10-03T15:57:03.781Z,101809.72
2022-10-03T15:59:38.180Z,101811.22
2022-10-03T16:02:21.487Z,101813.72
2022-10-03T16:04:57.936Z,101810.31
2022-10-03T16:07:43.020Z,101814.50
2022-10-03T16:10:22.121Z,101811.53
2022-10-03T16:13:03.475Z,101814.75
2022-10-03T16:16:07.753Z,101804.44
2022-10-03T16:19:24.532Z,101811.63
2022-10-03T16:22:09.215Z,101816.22
2022-10-03T16:24:48.135Z,101817.78
2022-10-03T16:27:22.570Z,101811.16
2022-10-03T16:30:17.100Z,101802.22
2022-10-03T16:32:57.878Z,101808.13
2022-10-03T16:35:37.530Z,101806.78
2022-10-03T16:38:20.245Z,101808.50
2022-10-03T16:41:00.240Z,101803.72
2022-10-03T16:43:33.675Z,101806.28
2022-10-03T16:46:11.983Z,101802.63
2022-10-03T16:49:04.525Z,101797.69
2022-10-03T16:51:43.890Z,101805.06
2022-10-03T16:54:17.257Z,101796.72
2022-10-03T16:56:52.631Z,101795.22
2022-10-03T16:59:26.164Z,101788.34
2022-10-03T17:02:02.451Z,101793.00
2022-10-03T17:04:39.532Z,101799.91
2022-10-03T17:07:21.347Z,101798.06
2022-10-03T17:09:53.969Z,101793.00
2022-10-03T17:12:30.963Z,101800.50
2022-10-03T17:15:08.896Z,101806.16
2022-10-03T17:17:55.312Z,101807.75
2022-10-03T17:20:44.247Z,101811.22
2022-10-03T17:23:29.956Z,101810.94
2022-10-03T17:26:11.673Z,101805.41
2022-10-03T17:28:54.717Z,101809.38
2022-10-03T17:31:34.278Z,101810.06
2022-10-03T17:34:17.505Z,101810.06
2022-10-03T17:37:06.150Z,101812.66
2022-10-03T17:39:54.706Z,101817.47
2022-10-03T17:42:43.761Z,101819.53
2022-10-03T17:45:33.655Z,101820.53
2022-10-03T17:48:14.196Z,101814.28
2022-10-03T17:50:59.476Z,101816.72
2022-10-03T17:53:31.675Z,101816.25
2022-10-03T17:56:11.784Z,101809.50
2022-10-03T17:58:49.214Z,101809.72
2022-10-03T18:01:26.252Z,101820.78
2022-10-03T18:04:03.224Z,101815.38
2022-10-03T18:06:54.855Z,101819.81
2022-10-03T18:09:40.898Z,101811.34
2022-10-03T18:12:25.890Z,101820.41
2022-10-03T18:15:41.085Z,101826.69
2022-10-03T18:18:56.857Z,101820.31
2022-10-03T18:21:48.289Z,101834.31
2022-10-03T18:24:55.562Z,101826.09
2022-10-03T18:28:12.589Z,101823.50
2022-10-03T18:30:52.048Z,101832.81
2022-10-03T18:33:29.454Z,101831.34
2022-10-03T18:36:01.628Z,101829.63
2022-10-03T18:38:35.309Z,101830.38
2022-10-03T18:41:07.265Z,101837.00
2022-10-03T18:43:45.445Z,101833.56
2022-10-03T18:46:21.005Z,101830.75
2022-10-03T18:52:00.551Z,101828.38
2022-10-03T18:54:47.508Z,101822.00
2022-10-03T18:57:26.094Z,101819.78
2022-10-03T19:00:08.015Z,101827.41
2022-10-03T19:02:44.063Z,101810.72
2022-10-03T19:05:23.907Z,101823.97
2022-10-03T19:08:14.389Z,101824.59
2022-10-03T19:10:50.054Z,101827.41
2022-10-03T19:13:30.938Z,101823.47
2022-10-03T19:16:29.098Z,101825.44
2022-10-03T19:19:12.539Z,101823.94
2022-10-03T19:21:43.473Z,101829.34
2022-10-03T19:24:34.482Z,101833.03
2022-10-03T19:27:20.756Z,101834.00
2022-10-03T19:30:02.980Z,101839.66
2022-10-03T19:32:53.924Z,101840.41
2022-10-03T19:35:26.303Z,101838.69
2022-10-03T19:38:02.282Z,101834.63
2022-10-03T19:40:54.976Z,101837.94
2022-10-03T19:43:44.833Z,101843.09
2022-10-03T19:46:52.681Z,101829.56
2022-10-03T19:49:43.988Z,101835.97
2022-10-03T19:52:32.069Z,101838.66
2022-10-03T19:55:12.246Z,101840.13
2022-10-03T19:57:46.527Z,101848.31
2022-10-03T20:00:30.959Z,101838.88
2022-10-03T20:03:16.584Z,101836.56
2022-10-03T20:06:00.608Z,101835.91
2022-10-03T20:08:46.430Z,101833.47
2022-10-03T20:11:41.319Z,101822.75
2022-10-03T20:14:16.843Z,101823.13
2022-10-03T20:16:50.108Z,101839.22
2022-10-03T20:19:25.279Z,101840.88
2022-10-03T20:21:59.241Z,101837.56
2022-10-03T20:24:37.880Z,101840.59
2022-10-03T20:27:28.520Z,101841.28
2022-10-03T20:30:26.856Z,101841.25
2022-10-03T20:32:59.596Z,101835.91
2022-10-03T20:35:39.367Z,101848.50
2022-10-03T20:38:25.622Z,101844.53
2022-10-03T20:41:10.284Z,101842.91
2022-10-03T20:43:46.051Z,101845.75
2022-10-03T20:46:26.407Z,101852.91
2022-10-03T20:49:29.529Z,101850.22
2022-10-03T20:52:02.670Z,101862.16
2022-10-03T20:54:47.833Z,101858.63
2022-10-03T20:57:25.041Z,101861.88
2022-10-03T21:00:05.176Z,101864.44
2022-10-03T21:02:44.178Z,101865.53
2022-10-03T21:05:26.390Z,101861.44
2022-10-03T21:08:04.143Z,101866.38
2022-10-03T21:10:39.446Z,101859.78
2022-10-03T21:13:18.907Z,101866.69
2022-10-03T21:15:51.887Z,101864.13
2022-10-03T21:18:28.421Z,101864.50
2022-10-03T21:21:12.580Z,101852.56
2022-10-03T21:23:51.598Z,101860.72
2022-10-03T21:26:30.510Z,101857.50
2022-10-03T21:29:31.145Z,101854.03
2022-10-03T21:32:24.856Z,101851.34
2022-10-03T21:35:09.112Z,101854.38
2022-10-03T21:37:50.353Z,101854.03
2022-10-03T21:40:49.026Z,101844.69
2022-10-03T21:43:38.405Z,101849.09
2022-10-03T21:46:21.550Z,101854.50
2022-10-03T21:49:22.250Z,101851.03
2022-10-03T21:52:26.084Z,101843.06
2022-10-03T21:55:17.806Z,101856.06
2022-10-03T21:58:05.115Z,101846.22
2022-10-03T22:01:13.428Z,101852.25
2022-10-03T22:03:49.669Z,101841.44
2022-10-03T22:06:26.188Z,101843.94
2022-10-03T22:09:03.051Z,101837.03
2022-10-03T22:11:44.149Z,101839.50
2022-10-03T22:14:31.034Z,101839.50
2022-10-03T22:17:17.088Z,101844.50
2022-10-03T22:19:52.817Z,101836.00
2022-10-03T22:22:47.520Z,101842.81
2022-10-03T22:25:39.074Z,101840.88
2022-10-03T22:28:23.503Z,101841.94
2022-10-03T22:31:17.198Z,101835.47
2022-10-03T22:34:05.646Z,101840.47
2022-10-03T22:36:38.777Z,101849.75
2022-10-03T22:39:14.283Z,101844.97
2022-10-03T22:41:46.904Z,101840.66
2022-10-03T22:44:19.221Z,101843.78
2022-10-03T22:46:53.551Z,101840.63
2022-10-03T22:49:35.526Z,101837.66
2022-10-03T22:52:08.823Z,101829.25
2022-10-03T22:54:42.617Z,101832.63
2022-10-03T22:57:14.584Z,101830.78
2022-10-03T22:59:50.025Z,101832.84
2022-10-03T23:02:27.003Z,101837.72
2022-10-03T23:05:03.372Z,101830.81
2022-10-03T23:08:06.480Z,101829.63
2022-10-03T23:10:50.004Z,101821.47
2022-10-03T23:13:29.459Z,101841.19
2022-10-03T23:16:11.537Z,101833.13
2022-10-03T23:19:00.091Z,101837.84
2022-10-03T23:21:31.255Z,101838.38
2022-10-03T23:24:12.799Z,101831.56
2022-10-03T23:27:03.668Z,101833.72
2022-10-03T23:29:32.413Z,101836.19
2022-10-03T23:32:07.370Z,101834.19
2022-10-03T23:34:49.083Z,101837.31
2022-10-03T23:37:45.422Z,101822.66
2022-10-03T23:40:37.269Z,101826.75
2022-10-03T23:43:40.001Z,101829.78
2022-10-03T23:46:17.254Z,101834.72
2022-10-03T23:48:51.149Z,101835.25
2022-10-03T23:51:26.561Z,101837.75
2022-10-03T23:54:02.734Z,101844.59
2022-10-03T23:56:39.398Z,101846.22
2022-10-03T23:59:26.431Z,101847.09
